Terminal Aerodrome Forecast
Issued by NWS

Home | Current Version | Previous Version | Text Only | Print | Product List | Glossary On
Versions: 1 2 3 4 5 6 7 8 9 10 11 12
254
FTUS42 TJSJ 262321
TAFKPK
TAF
TKPK 262321Z 2700/2724 05009KT P6SM VCTS FEW012CB BKN040
     FM271100 08010KT P6SM FEW020
     FM272300 06006KT P6SM FEW020
      AMD NOT SKED 2702/2711=

USA.gov is the U.S. government's official web portal to all federal, state and local government web resources and services.